createdAt,value
2023-01-11T00:02:20.512Z,13.32
2023-01-11T00:04:47.725Z,13.02
2023-01-11T00:07:14.107Z,16.70
2023-01-11T00:09:40.466Z,14.27
2023-01-11T00:12:08.212Z,11.43
2023-01-11T00:14:34.592Z,11.65
2023-01-11T00:17:01.079Z,10.70
2023-01-11T00:19:27.423Z,13.23
2023-01-11T00:21:53.833Z,12.30
2023-01-11T00:24:20.249Z,11.93
2023-01-11T00:26:46.737Z,11.50
2023-01-11T00:29:13.342Z,16.65
2023-01-11T00:31:39.714Z,12.75
2023-01-11T00:34:06.223Z,14.25
2023-01-11T00:36:32.668Z,14.90
2023-01-11T00:38:59.002Z,11.75
2023-01-11T00:41:44.116Z,12.52
2023-01-11T00:44:29.651Z,12.50
2023-01-11T00:47:14.950Z,11.90
2023-01-11T00:49:41.592Z,11.88
2023-01-11T00:52:11.434Z,11.20
2023-01-11T00:57:08.959Z,11.38
2023-01-11T00:59:36.677Z,14.23
2023-01-11T01:02:03.562Z,11.18
2023-01-11T01:04:29.935Z,13.23
2023-01-11T01:06:56.370Z,9.07
2023-01-11T01:09:22.882Z,12.27
2023-01-11T01:11:49.560Z,11.77
2023-01-11T01:14:33.042Z,10.60
2023-01-11T01:17:02.294Z,11.48
2023-01-11T01:19:30.619Z,11.45
2023-01-11T01:21:58.615Z,12.30
2023-01-11T01:24:25.948Z,12.30
2023-01-11T01:26:52.611Z,11.75
2023-01-11T01:29:19.198Z,15.48
2023-01-11T01:31:45.645Z,13.85
2023-01-11T01:34:12.353Z,10.35
2023-01-11T01:36:38.979Z,10.25
2023-01-11T01:39:06.927Z,15.65
2023-01-11T01:41:34.712Z,11.60
2023-01-11T01:44:04.187Z,11.93
2023-01-11T01:46:33.101Z,10.90
2023-01-11T01:49:13.872Z,9.45
2023-01-11T01:51:47.669Z,11.45
2023-01-11T01:54:19.966Z,12.30
2023-01-11T01:56:53.674Z,8.93
2023-01-11T01:59:22.179Z,10.40
2023-01-11T02:01:49.799Z,8.45
2023-01-11T02:04:24.540Z,9.55
2023-01-11T02:06:54.985Z,8.07
2023-01-11T02:09:29.504Z,12.30
2023-01-11T02:11:57.383Z,13.05
2023-01-11T02:14:24.698Z,16.02
2023-01-11T02:16:51.200Z,11.80
2023-01-11T02:19:27.810Z,14.82
2023-01-11T02:22:14.459Z,10.43
2023-01-11T02:25:12.695Z,12.82
2023-01-11T02:27:54.300Z,12.30
2023-01-11T02:30:30.178Z,10.80
2023-01-11T02:33:25.643Z,13.30
2023-01-11T02:36:15.349Z,14.27
2023-01-11T02:38:47.302Z,12.85
2023-01-11T02:41:51.917Z,12.00
2023-01-11T02:44:42.542Z,11.77
2023-01-11T02:47:17.772Z,9.13
2023-01-11T02:50:01.420Z,11.27
2023-01-11T02:52:42.096Z,10.98
2023-01-11T02:55:12.427Z,12.65
2023-01-11T02:57:42.685Z,12.77
2023-01-11T03:00:13.011Z,9.55
2023-01-11T03:02:39.569Z,11.43
2023-01-11T03:05:12.403Z,11.32
2023-01-11T03:07:53.978Z,12.07
2023-01-11T03:10:49.863Z,12.65
2023-01-11T03:13:33.824Z,11.18
2023-01-11T03:16:27.250Z,13.55
2023-01-11T03:19:07.311Z,14.02
2023-01-11T03:21:47.821Z,11.85
2023-01-11T03:24:32.569Z,12.45
2023-01-11T03:27:10.186Z,10.85
2023-01-11T03:29:43.781Z,13.10
2023-01-11T03:32:22.318Z,11.20
2023-01-11T03:35:24.284Z,13.68
2023-01-11T03:37:50.844Z,12.82
2023-01-11T03:40:23.664Z,10.73
2023-01-11T03:43:11.499Z,10.93
2023-01-11T03:45:47.366Z,11.68
2023-01-11T03:48:19.733Z,12.95
2023-01-11T03:50:49.546Z,13.38
2023-01-11T03:55:48.130Z,10.15
2023-01-11T03:58:14.665Z,9.73
2023-01-11T04:00:41.299Z,10.77
2023-01-11T04:03:09.683Z,7.60
2023-01-11T04:05:38.229Z,11.13
2023-01-11T04:08:04.983Z,8.55
2023-01-11T04:10:31.581Z,8.65
2023-01-11T04:12:57.941Z,10.13
2023-01-11T04:15:24.311Z,7.78
2023-01-11T04:17:50.895Z,8.85
2023-01-11T04:20:17.363Z,9.85
2023-01-11T04:22:43.801Z,9.38
2023-01-11T04:25:10.199Z,9.15
2023-01-11T04:27:36.647Z,10.02
2023-01-11T04:30:03.711Z,9.98
2023-01-11T04:32:30.088Z,9.23
2023-01-11T04:34:56.648Z,8.45
2023-01-11T04:37:23.127Z,8.32
2023-01-11T04:39:49.597Z,9.32
2023-01-11T04:42:18.596Z,8.63
2023-01-11T04:44:47.947Z,8.07
2023-01-11T04:47:16.144Z,7.20
2023-01-11T04:49:42.927Z,8.85
2023-01-11T04:52:14.265Z,10.00
2023-01-11T04:54:41.233Z,7.85
2023-01-11T04:57:11.835Z,9.23
2023-01-11T04:59:38.224Z,5.93
2023-01-11T05:02:04.814Z,8.60
2023-01-11T05:04:31.354Z,7.57
2023-01-11T05:06:57.777Z,9.75
2023-01-11T05:09:24.416Z,8.70
2023-01-11T05:11:50.795Z,10.10
2023-01-11T05:14:17.599Z,9.63
2023-01-11T05:16:44.076Z,8.13
2023-01-11T05:19:11.474Z,12.88
2023-01-11T05:21:40.068Z,11.55
2023-01-11T05:24:08.924Z,14.68
2023-01-11T05:26:37.374Z,9.40
2023-01-11T05:29:07.337Z,8.77
2023-01-11T05:31:36.893Z,8.40
2023-01-11T05:34:03.692Z,8.68
2023-01-11T05:36:30.131Z,9.15
2023-01-11T05:38:57.298Z,7.57
2023-01-11T05:41:26.214Z,9.73
2023-01-11T05:44:12.131Z,12.80
2023-01-11T05:46:40.006Z,10.93
2023-01-11T05:49:07.405Z,14.02
2023-01-11T05:51:34.472Z,11.55
2023-01-11T05:54:02.577Z,18.15
2023-01-11T05:56:29.198Z,25.42
2023-01-11T05:58:55.830Z,25.58
2023-01-11T06:01:23.420Z,40.63
2023-01-11T06:03:49.868Z,76.40
2023-01-11T06:06:17.770Z,94.82
2023-01-11T06:08:44.250Z,107.13
2023-01-11T06:11:10.669Z,104.28
2023-01-11T06:13:37.111Z,86.57
2023-01-11T06:16:03.422Z,54.30
2023-01-11T06:18:35.164Z,35.80
2023-01-11T06:21:02.059Z,30.48
2023-01-11T06:23:31.095Z,19.35
2023-01-11T06:26:01.386Z,18.30
2023-01-11T06:28:27.911Z,14.73
2023-01-11T06:30:58.960Z,15.15
2023-01-11T06:33:26.863Z,12.75
2023-01-11T06:35:53.921Z,9.43
2023-01-11T06:38:22.705Z,12.65
2023-01-11T06:41:00.513Z,10.48
2023-01-11T06:43:27.947Z,9.93
2023-01-11T06:45:54.384Z,9.63
2023-01-11T06:48:22.083Z,12.45
2023-01-11T06:50:50.316Z,6.60
2023-01-11T06:53:16.806Z,8.15
2023-01-11T06:55:43.572Z,8.60
2023-01-11T06:58:10.196Z,7.30
2023-01-11T07:00:36.680Z,8.23
2023-01-11T07:03:04.815Z,10.98
2023-01-11T07:05:35.436Z,8.88
2023-01-11T07:08:02.995Z,10.43
2023-01-11T07:10:29.485Z,7.60
2023-01-11T07:12:55.833Z,7.65
2023-01-11T07:15:22.424Z,11.02
2023-01-11T07:17:54.170Z,8.10
2023-01-11T07:20:20.557Z,8.32
2023-01-11T07:22:47.116Z,7.57
2023-01-11T07:25:13.517Z,8.75
2023-01-11T07:27:39.999Z,8.13
2023-01-11T07:30:08.473Z,8.07
2023-01-11T07:35:02.457Z,7.40
2023-01-11T07:37:32.586Z,9.05
2023-01-11T07:39:59.101Z,8.15
2023-01-11T07:42:43.831Z,7.85
2023-01-11T07:45:10.850Z,8.05
2023-01-11T07:47:37.363Z,7.30
2023-01-11T07:50:04.061Z,8.80
2023-01-11T07:52:30.541Z,7.57
2023-01-11T07:55:02.191Z,9.80
2023-01-11T07:57:31.410Z,7.53
2023-01-11T07:59:58.326Z,8.90
2023-01-11T08:02:24.847Z,8.75
2023-01-11T08:04:51.360Z,10.40
2023-01-11T08:07:17.795Z,16.75
2023-01-11T08:09:44.381Z,14.23
2023-01-11T08:12:29.166Z,8.35
2023-01-11T08:14:55.849Z,8.73
2023-01-11T08:17:22.287Z,9.05
2023-01-11T08:19:48.658Z,9.35
2023-01-11T08:22:15.077Z,6.93
2023-01-11T08:24:41.445Z,7.57
2023-01-11T08:27:08.088Z,6.38
2023-01-11T08:29:34.642Z,7.28
2023-01-11T08:32:01.249Z,16.58
2023-01-11T08:34:29.045Z,40.50
2023-01-11T08:37:01.907Z,13.13
2023-01-11T08:39:30.996Z,8.38
2023-01-11T08:42:00.775Z,9.10
2023-01-11T08:47:02.498Z,9.68
2023-01-11T08:49:30.364Z,12.27
2023-01-11T08:51:56.842Z,7.38
2023-01-11T08:54:23.255Z,6.82
2023-01-11T08:56:49.592Z,8.70
2023-01-11T08:59:15.998Z,11.35
2023-01-11T09:01:42.544Z,6.88
2023-01-11T09:04:19.324Z,7.68
2023-01-11T09:06:50.008Z,11.18
2023-01-11T09:09:16.888Z,11.88
2023-01-11T09:11:56.474Z,10.77
2023-01-11T09:14:24.820Z,9.27
2023-01-11T09:16:52.513Z,7.80
2023-01-11T09:19:18.921Z,8.32
2023-01-11T09:21:46.392Z,9.23
2023-01-11T09:24:13.884Z,6.72
2023-01-11T09:26:42.196Z,8.55
2023-01-11T09:29:09.212Z,8.63
2023-01-11T09:31:35.786Z,12.25
2023-01-11T09:34:02.203Z,12.05
2023-01-11T09:36:30.834Z,9.75
2023-01-11T09:39:00.302Z,8.88
2023-01-11T09:41:40.647Z,8.23
2023-01-11T09:44:16.296Z,8.95
2023-01-11T09:46:48.202Z,9.23
2023-01-11T09:49:29.563Z,10.23
2023-01-11T09:52:18.206Z,11.65
2023-01-11T09:54:45.455Z,9.48
2023-01-11T09:57:38.230Z,9.57
2023-01-11T10:00:31.394Z,9.88
2023-01-11T10:03:43.180Z,6.95
2023-01-11T10:06:24.217Z,8.70
2023-01-11T10:18:27.583Z,9.52
2023-01-11T10:18:34.389Z,10.30
2023-01-11T10:23:56.034Z,6.18
2023-01-11T10:26:29.008Z,7.80
2023-01-11T10:29:39.556Z,5.90
2023-01-11T10:32:34.586Z,8.52
2023-01-11T10:35:25.917Z,22.17
2023-01-11T10:38:16.993Z,7.95
2023-01-11T10:41:06.729Z,7.03
2023-01-11T10:43:40.395Z,7.35
2023-01-11T10:46:26.193Z,8.98
2023-01-11T10:49:15.598Z,7.28
2023-01-11T10:54:23.413Z,8.50
2023-01-11T10:57:03.017Z,9.40
2023-01-11T10:59:46.824Z,7.72
2023-01-11T11:02:24.806Z,6.75
2023-01-11T11:05:14.443Z,6.82
2023-01-11T11:07:50.836Z,6.57
2023-01-11T11:10:37.719Z,6.82
2023-01-11T11:13:17.310Z,6.40
2023-01-11T11:15:47.106Z,6.05
2023-01-11T11:18:13.546Z,6.50
2023-01-11T11:20:40.684Z,5.65
2023-01-11T11:23:07.125Z,6.85
2023-01-11T11:25:41.432Z,5.82
2023-01-11T11:28:15.547Z,6.85
2023-01-11T11:30:45.333Z,4.78
2023-01-11T11:33:22.274Z,9.13
2023-01-11T11:36:04.553Z,6.25
2023-01-11T11:38:45.030Z,7.45
2023-01-11T11:41:13.739Z,5.47
2023-01-11T11:43:45.912Z,6.07
2023-01-11T11:46:19.313Z,5.53
2023-01-11T11:49:08.621Z,6.68
2023-01-11T11:51:35.358Z,5.38
2023-01-11T11:54:02.036Z,5.60
2023-01-11T11:56:37.857Z,6.07
2023-01-11T12:01:39.517Z,6.38
2023-01-11T12:04:18.661Z,5.25
2023-01-11T12:07:05.733Z,5.88
2023-01-11T12:09:34.764Z,5.97
2023-01-11T12:12:02.531Z,6.07
2023-01-11T12:14:32.375Z,5.68
2023-01-11T12:16:59.264Z,5.72
2023-01-11T12:19:41.358Z,23.52
2023-01-11T12:22:28.985Z,22.38
2023-01-11T12:25:19.198Z,4.97
2023-01-11T12:28:28.296Z,4.70
2023-01-11T12:31:31.254Z,4.80
2023-01-11T12:34:17.279Z,4.85
2023-01-11T12:37:02.346Z,4.90
2023-01-11T12:39:53.462Z,5.95
2023-01-11T12:42:28.947Z,8.27
2023-01-11T12:45:06.735Z,6.30
2023-01-11T12:48:23.365Z,6.32
2023-01-11T12:51:13.855Z,7.85
2023-01-11T12:53:49.406Z,5.18
2023-01-11T12:56:31.868Z,5.78
2023-01-11T12:59:36.694Z,9.95
2023-01-11T13:02:23.703Z,6.32
2023-01-11T13:05:12.972Z,9.05
2023-01-11T13:07:51.773Z,7.00
2023-01-11T13:10:31.924Z,9.07
2023-01-11T13:13:55.220Z,9.18
2023-01-11T13:16:31.329Z,22.33
2023-01-11T13:19:08.632Z,9.05
2023-01-11T13:21:44.428Z,6.78
2023-01-11T13:26:44.089Z,10.20
2023-01-11T13:29:24.181Z,10.30
2023-01-11T13:31:52.829Z,8.43
2023-01-11T13:34:23.116Z,9.90
2023-01-11T13:36:55.661Z,8.70
2023-01-11T13:39:32.237Z,7.28
2023-01-11T13:42:04.585Z,5.57
2023-01-11T13:44:37.347Z,5.18
2023-01-11T13:47:13.179Z,6.75
2023-01-11T13:52:15.043Z,6.00
2023-01-11T13:54:49.750Z,5.38
2023-01-11T13:57:27.113Z,4.97
2023-01-11T14:00:01.489Z,5.00
2023-01-11T14:02:47.563Z,6.05
2023-01-11T14:05:21.250Z,5.68
2023-01-11T14:08:11.719Z,6.15
2023-01-11T14:11:00.535Z,5.53
2023-01-11T14:14:00.909Z,5.35
2023-01-11T14:16:51.247Z,4.03
2023-01-11T14:19:39.212Z,5.38
2023-01-11T14:22:17.683Z,3.95
2023-01-11T14:24:53.918Z,5.13
2023-01-11T14:27:28.581Z,3.30
2023-01-11T14:30:05.068Z,2.90
2023-01-11T14:33:02.290Z,2.95
2023-01-11T14:35:52.547Z,2.88
2023-01-11T14:38:21.856Z,4.10
2023-01-11T14:41:19.251Z,4.07
2023-01-11T14:44:10.979Z,2.78
2023-01-11T14:46:51.069Z,3.08
2023-01-11T14:49:41.955Z,4.20
2023-01-11T14:52:16.237Z,3.55
2023-01-11T14:54:47.193Z,3.38
2023-01-11T14:57:40.559Z,3.30
2023-01-11T15:00:18.859Z,8.23
2023-01-11T15:02:51.331Z,8.30
2023-01-11T15:05:29.531Z,3.35
2023-01-11T15:08:13.058Z,2.92
2023-01-11T15:10:47.168Z,3.85
2023-01-11T15:13:18.613Z,2.55
2023-01-11T15:16:04.336Z,3.78
2023-01-11T15:18:31.450Z,3.95
2023-01-11T15:21:03.727Z,3.10
2023-01-11T15:23:45.883Z,3.45
2023-01-11T15:26:15.376Z,3.08
2023-01-11T15:28:51.709Z,2.10
2023-01-11T15:31:39.090Z,3.15
2023-01-11T15:34:21.989Z,4.25
2023-01-11T15:37:02.401Z,3.58
2023-01-11T15:39:52.173Z,3.15
2023-01-11T15:42:37.225Z,3.72
2023-01-11T15:45:15.939Z,5.28
2023-01-11T15:47:51.265Z,4.03
2023-01-11T15:50:43.570Z,3.90
2023-01-11T15:53:53.164Z,3.08
2023-01-11T15:56:22.794Z,3.08
2023-01-11T15:59:19.921Z,3.85
2023-01-11T16:02:15.643Z,3.20
2023-01-11T16:04:51.519Z,3.33
2023-01-11T16:07:55.105Z,4.00
2023-01-11T16:10:44.926Z,3.50
2023-01-11T16:13:34.019Z,4.63
2023-01-11T16:16:16.128Z,3.60
2023-01-11T16:18:55.772Z,3.45
2023-01-11T16:21:37.514Z,3.83
2023-01-11T16:24:09.486Z,3.42
2023-01-11T16:26:37.393Z,4.05
2023-01-11T16:29:11.385Z,36.25
2023-01-11T16:31:59.194Z,4.82
2023-01-11T16:34:28.773Z,4.35
2023-01-11T16:39:25.960Z,3.17
2023-01-11T16:42:06.005Z,4.47
2023-01-11T16:44:51.432Z,2.33
2023-01-11T16:47:19.883Z,3.10
2023-01-11T16:49:49.368Z,2.03
2023-01-11T16:52:28.049Z,2.42
2023-01-11T16:54:57.115Z,1.98
2023-01-11T16:57:40.387Z,1.98
2023-01-11T17:00:19.727Z,2.92
2023-01-11T17:02:48.861Z,1.60
2023-01-11T17:05:24.345Z,1.88
2023-01-11T17:07:50.816Z,1.67
2023-01-11T17:10:20.167Z,2.55
2023-01-11T17:12:52.032Z,1.60
2023-01-11T17:15:24.414Z,1.70
2023-01-11T17:17:50.956Z,2.80
2023-01-11T17:20:21.834Z,1.67
2023-01-11T17:22:56.820Z,1.63
2023-01-11T17:25:29.552Z,1.85
2023-01-11T17:28:04.265Z,2.00
2023-01-11T17:30:32.454Z,1.80
2023-01-11T17:32:59.549Z,1.70
2023-01-11T17:35:36.616Z,3.65
2023-01-11T17:38:05.932Z,3.20
2023-01-11T17:40:36.690Z,2.72
2023-01-11T17:43:42.857Z,2.28
2023-01-11T17:46:16.874Z,3.33
2023-01-11T17:48:55.524Z,2.38
2023-01-11T17:51:27.448Z,2.78
2023-01-11T17:53:54.072Z,3.08
2023-01-11T17:56:32.620Z,3.03
2023-01-11T17:59:18.665Z,2.90
2023-01-11T18:01:50.513Z,2.45
2023-01-11T18:04:20.608Z,2.88
2023-01-11T18:06:48.661Z,2.53
2023-01-11T18:09:32.652Z,3.45
2023-01-11T18:12:18.251Z,2.78
2023-01-11T18:14:59.704Z,3.00
2023-01-11T18:17:32.261Z,16.02
2023-01-11T18:20:00.097Z,3.85
2023-01-11T18:22:43.927Z,3.15
2023-01-11T18:25:21.780Z,4.05
2023-01-11T18:27:48.955Z,2.78
2023-01-11T18:30:30.805Z,2.80
2023-01-11T18:35:24.967Z,3.72
2023-01-11T18:37:51.990Z,3.53
2023-01-11T18:40:19.455Z,3.50
2023-01-11T18:42:47.437Z,3.92
2023-01-11T18:45:14.449Z,3.88
2023-01-11T18:47:40.905Z,3.08
2023-01-11T18:50:09.859Z,2.88
2023-01-11T18:52:37.092Z,3.60
2023-01-11T18:55:14.185Z,2.70
2023-01-11T18:57:41.694Z,3.60
2023-01-11T19:00:08.868Z,3.10
2023-01-11T19:02:44.431Z,2.78
2023-01-11T19:05:13.239Z,3.25
2023-01-11T19:07:39.636Z,3.40
2023-01-11T19:10:06.514Z,3.20
2023-01-11T19:12:32.981Z,4.28
2023-01-11T19:14:59.375Z,4.47
2023-01-11T19:17:28.762Z,3.80
2023-01-11T19:19:55.157Z,4.45
2023-01-11T19:22:24.565Z,3.75
2023-01-11T19:24:53.290Z,3.53
2023-01-11T19:27:19.643Z,3.17
2023-01-11T19:29:46.009Z,2.95
2023-01-11T19:32:12.384Z,4.45
2023-01-11T19:34:39.804Z,3.85
2023-01-11T19:37:06.315Z,4.43
2023-01-11T19:39:32.681Z,4.03
2023-01-11T19:42:01.423Z,3.28
2023-01-11T19:44:35.959Z,4.68
2023-01-11T19:47:12.025Z,4.63
2023-01-11T19:49:40.280Z,3.70
2023-01-11T19:52:13.218Z,4.00
2023-01-11T19:54:42.622Z,4.95
2023-01-11T19:57:14.818Z,4.13
2023-01-11T19:59:41.546Z,5.20
2023-01-11T20:02:09.715Z,3.58
2023-01-11T20:04:37.085Z,4.72
2023-01-11T20:07:04.858Z,6.43
2023-01-11T20:09:31.321Z,5.03
2023-01-11T20:11:58.780Z,6.95
2023-01-11T20:14:25.716Z,8.93
2023-01-11T20:16:52.100Z,6.28
2023-01-11T20:19:18.521Z,5.53
2023-01-11T20:21:44.905Z,7.28
2023-01-11T20:24:13.220Z,5.55
2023-01-11T20:26:40.558Z,6.30
2023-01-11T20:29:07.413Z,5.10
2023-01-11T20:31:35.483Z,4.72
2023-01-11T20:34:07.316Z,4.78
2023-01-11T20:36:33.680Z,6.05
2023-01-11T20:39:00.273Z,4.93
2023-01-11T20:41:46.496Z,6.80
2023-01-11T20:44:24.383Z,5.25
2023-01-11T20:46:52.117Z,6.30
2023-01-11T20:49:21.175Z,5.45
2023-01-11T20:51:47.580Z,7.28
2023-01-11T20:54:14.237Z,8.13
2023-01-11T20:56:41.632Z,7.57
2023-01-11T20:59:09.310Z,7.95
2023-01-11T21:01:37.139Z,7.07
2023-01-11T21:04:08.894Z,8.55
2023-01-11T21:06:39.151Z,7.65
2023-01-11T21:09:07.172Z,7.53
2023-01-11T21:11:34.378Z,5.93
2023-01-11T21:14:04.179Z,7.30
2023-01-11T21:16:31.434Z,7.05
2023-01-11T21:19:00.536Z,6.28
2023-01-11T21:21:28.110Z,5.53
2023-01-11T21:23:57.728Z,4.78
2023-01-11T21:28:53.932Z,6.82
2023-01-11T21:31:23.225Z,6.78
2023-01-11T21:33:50.186Z,5.95
2023-01-11T21:36:21.887Z,5.18
2023-01-11T21:38:57.026Z,5.55
2023-01-11T21:41:45.446Z,4.80
2023-01-11T21:44:12.841Z,6.93
2023-01-11T21:46:40.313Z,5.50
2023-01-11T21:49:07.247Z,7.43
2023-01-11T21:51:34.452Z,5.95
2023-01-11T21:54:07.803Z,6.03
2023-01-11T21:56:34.886Z,6.82
2023-01-11T21:59:01.384Z,5.45
2023-01-11T22:01:28.136Z,6.18
2023-01-11T22:03:54.603Z,6.88
2023-01-11T22:06:21.012Z,6.80
2023-01-11T22:08:47.605Z,5.43
2023-01-11T22:11:16.221Z,7.35
2023-01-11T22:13:43.075Z,6.97
2023-01-11T22:16:12.858Z,6.10
2023-01-11T22:18:41.001Z,7.43
2023-01-11T22:21:20.471Z,8.00
2023-01-11T22:23:48.074Z,6.00
2023-01-11T22:26:17.080Z,8.73
2023-01-11T22:29:03.389Z,8.07
2023-01-11T22:31:30.949Z,6.03
2023-01-11T22:33:58.052Z,5.15
2023-01-11T22:36:25.629Z,5.07
2023-01-11T22:38:52.636Z,6.50
2023-01-11T22:41:19.758Z,6.88
2023-01-11T22:43:46.815Z,6.13
2023-01-11T22:46:15.922Z,7.32
2023-01-11T22:48:43.465Z,8.02
2023-01-11T22:51:11.055Z,7.10
2023-01-11T22:53:40.764Z,7.65
2023-01-11T22:56:08.830Z,6.43
2023-01-11T22:58:36.054Z,7.53
2023-01-11T23:01:14.080Z,13.23
2023-01-11T23:03:41.641Z,20.42
2023-01-11T23:06:09.579Z,15.80
2023-01-11T23:08:37.625Z,9.57
2023-01-11T23:11:04.069Z,9.60
2023-01-11T23:13:48.983Z,11.85
2023-01-11T23:16:15.434Z,15.70
2023-01-11T23:18:41.855Z,10.60
2023-01-11T23:21:08.295Z,10.10
2023-01-11T23:23:34.752Z,11.40
2023-01-11T23:26:01.147Z,9.07
2023-01-11T23:28:29.778Z,7.38
2023-01-11T23:30:56.158Z,7.90
2023-01-11T23:33:22.503Z,9.55
2023-01-11T23:35:59.034Z,11.10
2023-01-11T23:38:25.716Z,9.73
2023-01-11T23:41:10.588Z,7.95
2023-01-11T23:43:40.616Z,11.43
2023-01-11T23:46:25.687Z,5.65
2023-01-11T23:48:52.043Z,6.50
2023-01-11T23:51:18.410Z,5.72
2023-01-11T23:53:44.884Z,7.88
2023-01-11T23:56:11.270Z,6.70
2023-01-11T23:58:37.625Z,5.55
